sensor_id;sensor_type;location;lat;lon;timestamp;temperature;humidity
19449;DHT22;9863;49.404;8.246;2023-05-17T00:01:54;8.80;99.90
19449;DHT22;9863;49.404;8.246;2023-05-17T00:04:22;8.80;99.90
19449;DHT22;9863;49.404;8.246;2023-05-17T00:06:49;8.80;99.90
19449;DHT22;9863;49.404;8.246;2023-05-17T00:09:16;8.80;99.90
19449;DHT22;9863;49.404;8.246;2023-05-17T00:11:43;8.70;99.90
19449;DHT22;9863;49.404;8.246;2023-05-17T00:14:11;8.80;99.90
19449;DHT22;9863;49.404;8.246;2023-05-17T00:16:41;8.70;99.90
19449;DHT22;9863;49.404;8.246;2023-05-17T00:19:08;8.70;99.90
19449;DHT22;9863;49.404;8.246;2023-05-17T00:21:35;8.70;99.90
19449;DHT22;9863;49.404;8.246;2023-05-17T00:24:03;8.70;99.90
19449;DHT22;9863;49.404;8.246;2023-05-17T00:28:59;8.60;99.90
19449;DHT22;9863;49.404;8.246;2023-05-17T00:31:27;8.50;99.90
19449;DHT22;9863;49.404;8.246;2023-05-17T00:33:54;8.50;99.90
19449;DHT22;9863;49.404;8.246;2023-05-17T00:36:21;8.60;99.90
19449;DHT22;9863;49.404;8.246;2023-05-17T00:38:48;8.60;99.90
19449;DHT22;9863;49.404;8.246;2023-05-17T00:41:15;7.40;99.90
19449;DHT22;9863;49.404;8.246;2023-05-17T00:43:44;8.60;99.90
19449;DHT22;9863;49.404;8.246;2023-05-17T00:46:11;8.50;99.90
19449;DHT22;9863;49.404;8.246;2023-05-17T00:48:39;8.50;99.90
19449;DHT22;9863;49.404;8.246;2023-05-17T00:51:06;8.50;99.90
19449;DHT22;9863;49.404;8.246;2023-05-17T00:56:03;8.50;99.90
19449;DHT22;9863;49.404;8.246;2023-05-17T00:58:31;8.50;99.90
19449;DHT22;9863;49.404;8.246;2023-05-17T01:03:27;8.40;99.90
19449;DHT22;9863;49.404;8.246;2023-05-17T01:05:55;8.40;99.90
19449;DHT22;9863;49.404;8.246;2023-05-17T01:08:22;8.40;99.90
19449;DHT22;9863;49.404;8.246;2023-05-17T01:13:54;8.40;99.90
19449;DHT22;9863;49.404;8.246;2023-05-17T01:16:32;8.40;99.90
19449;DHT22;9863;49.404;8.246;2023-05-17T01:28:07;8.40;99.90
19449;DHT22;9863;49.404;8.246;2023-05-17T01:30:37;8.40;99.90
19449;DHT22;9863;49.404;8.246;2023-05-17T01:33:06;8.30;99.90
19449;DHT22;9863;49.404;8.246;2023-05-17T01:38:02;8.30;99.90
19449;DHT22;9863;49.404;8.246;2023-05-17T01:40:34;8.40;99.90
19449;DHT22;9863;49.404;8.246;2023-05-17T01:46:42;8.30;99.90
19449;DHT22;9863;49.404;8.246;2023-05-17T01:49:26;8.30;99.90
19449;DHT22;9863;49.404;8.246;2023-05-17T01:54:42;8.20;99.90
19449;DHT22;9863;49.404;8.246;2023-05-17T01:57:14;8.20;99.90
19449;DHT22;9863;49.404;8.246;2023-05-17T01:59:43;8.10;99.90
19449;DHT22;9863;49.404;8.246;2023-05-17T02:04:39;8.10;99.90
19449;DHT22;9863;49.404;8.246;2023-05-17T02:07:06;8.10;99.90
19449;DHT22;9863;49.404;8.246;2023-05-17T02:09:34;8.10;99.90
19449;DHT22;9863;49.404;8.246;2023-05-17T02:12:01;8.10;99.90
19449;DHT22;9863;49.404;8.246;2023-05-17T02:14:28;8.00;99.90
19449;DHT22;9863;49.404;8.246;2023-05-17T02:19:23;8.00;99.90
19449;DHT22;9863;49.404;8.246;2023-05-17T02:21:50;8.00;99.90
19449;DHT22;9863;49.404;8.246;2023-05-17T02:24:17;8.00;99.90
19449;DHT22;9863;49.404;8.246;2023-05-17T02:29:14;7.80;99.90
19449;DHT22;9863;49.404;8.246;2023-05-17T02:31:41;7.70;99.90
19449;DHT22;9863;49.404;8.246;2023-05-17T02:34:08;7.70;99.90
19449;DHT22;9863;49.404;8.246;2023-05-17T02:36:35;7.70;99.90
19449;DHT22;9863;49.404;8.246;2023-05-17T02:39:02;7.70;99.90
19449;DHT22;9863;49.404;8.246;2023-05-17T02:43:57;6.70;99.90
19449;DHT22;9863;49.404;8.246;2023-05-17T02:46:24;7.60;99.90
19449;DHT22;9863;49.404;8.246;2023-05-17T02:48:51;7.60;99.90
19449;DHT22;9863;49.404;8.246;2023-05-17T02:51:18;7.50;99.90
19449;DHT22;9863;49.404;8.246;2023-05-17T02:56:13;7.50;99.90
19449;DHT22;9863;49.404;8.246;2023-05-17T02:58:40;7.50;99.90
19449;DHT22;9863;49.404;8.246;2023-05-17T03:06:03;7.40;99.90
19449;DHT22;9863;49.404;8.246;2023-05-17T03:10:58;7.40;99.90
19449;DHT22;9863;49.404;8.246;2023-05-17T03:13:25;7.40;99.90
19449;DHT22;9863;49.404;8.246;2023-05-17T03:15:52;7.40;99.90
19449;DHT22;9863;49.404;8.246;2023-05-17T03:18:19;7.30;99.90
19449;DHT22;9863;49.404;8.246;2023-05-17T03:20:46;7.10;99.90
19449;DHT22;9863;49.404;8.246;2023-05-17T03:23:13;7.10;99.90
19449;DHT22;9863;49.404;8.246;2023-05-17T03:25:40;7.10;99.90
19449;DHT22;9863;49.404;8.246;2023-05-17T03:28:07;7.10;99.90
19449;DHT22;9863;49.404;8.246;2023-05-17T03:30:34;7.00;99.90
19449;DHT22;9863;49.404;8.246;2023-05-17T03:33:02;7.00;99.90
19449;DHT22;9863;49.404;8.246;2023-05-17T03:35:29;6.90;99.90
19449;DHT22;9863;49.404;8.246;2023-05-17T03:37:56;7.00;99.90
19449;DHT22;9863;49.404;8.246;2023-05-17T03:40:23;6.90;99.90
19449;DHT22;9863;49.404;8.246;2023-05-17T03:45:19;6.90;99.90
19449;DHT22;9863;49.404;8.246;2023-05-17T03:47:46;6.80;99.90
19449;DHT22;9863;49.404;8.246;2023-05-17T03:50:14;6.90;99.90
19449;DHT22;9863;49.404;8.246;2023-05-17T03:52:41;7.00;99.90
19449;DHT22;9863;49.404;8.246;2023-05-17T03:55:08;7.00;99.90
19449;DHT22;9863;49.404;8.246;2023-05-17T03:57:35;7.00;99.90
19449;DHT22;9863;49.404;8.246;2023-05-17T04:00:03;7.00;99.90
19449;DHT22;9863;49.404;8.246;2023-05-17T04:02:35;6.90;99.90
19449;DHT22;9863;49.404;8.246;2023-05-17T04:05:02;6.90;99.90
19449;DHT22;9863;49.404;8.246;2023-05-17T04:07:29;7.00;99.90
19449;DHT22;9863;49.404;8.246;2023-05-17T04:09:57;7.00;99.90
19449;DHT22;9863;49.404;8.246;2023-05-17T04:12:28;7.00;99.90
19449;DHT22;9863;49.404;8.246;2023-05-17T04:14:55;6.90;99.90
19449;DHT22;9863;49.404;8.246;2023-05-17T04:19:50;7.00;99.90
19449;DHT22;9863;49.404;8.246;2023-05-17T04:27:15;6.90;99.90
19449;DHT22;9863;49.404;8.246;2023-05-17T04:29:42;7.00;99.90
19449;DHT22;9863;49.404;8.246;2023-05-17T04:51:51;7.20;99.90
19449;DHT22;9863;49.404;8.246;2023-05-17T04:59:14;7.40;99.90
19449;DHT22;9863;49.404;8.246;2023-05-17T05:01:41;7.70;99.90
19449;DHT22;9863;49.404;8.246;2023-05-17T05:06:35;7.70;99.90
19449;DHT22;9863;49.404;8.246;2023-05-17T05:09:02;7.70;99.90
19449;DHT22;9863;49.404;8.246;2023-05-17T05:11:30;7.80;99.90
19449;DHT22;9863;49.404;8.246;2023-05-17T05:13:57;7.80;99.90
19449;DHT22;9863;49.404;8.246;2023-05-17T05:18:52;8.10;99.90
19449;DHT22;9863;49.404;8.246;2023-05-17T05:21:20;8.10;99.90
19449;DHT22;9863;49.404;8.246;2023-05-17T05:23:47;8.20;99.90
19449;DHT22;9863;49.404;8.246;2023-05-17T05:26:14;8.20;99.90
19449;DHT22;9863;49.404;8.246;2023-05-17T05:28:41;8.40;99.90
19449;DHT22;9863;49.404;8.246;2023-05-17T05:31:08;8.40;99.90
19449;DHT22;9863;49.404;8.246;2023-05-17T05:33:36;8.50;99.90
19449;DHT22;9863;49.404;8.246;2023-05-17T05:36:03;8.70;99.90
19449;DHT22;9863;49.404;8.246;2023-05-17T05:38:30;8.80;99.90
19449;DHT22;9863;49.404;8.246;2023-05-17T05:40:58;8.80;99.90
19449;DHT22;9863;49.404;8.246;2023-05-17T05:45:52;8.80;99.90
19449;DHT22;9863;49.404;8.246;2023-05-17T05:48:20;8.80;99.90
19449;DHT22;9863;49.404;8.246;2023-05-17T05:50:47;9.00;99.90
19449;DHT22;9863;49.404;8.246;2023-05-17T05:53:14;8.90;99.90
19449;DHT22;9863;49.404;8.246;2023-05-17T05:55:45;9.20;99.90
19449;DHT22;9863;49.404;8.246;2023-05-17T05:58:12;9.20;99.90
19449;DHT22;9863;49.404;8.246;2023-05-17T06:00:40;5.30;99.90
19449;DHT22;9863;49.404;8.246;2023-05-17T06:03:07;9.60;99.90
19449;DHT22;9863;49.404;8.246;2023-05-17T06:05:34;9.50;99.90
19449;DHT22;9863;49.404;8.246;2023-05-17T06:08:04;9.70;99.90
19449;DHT22;9863;49.404;8.246;2023-05-17T06:10:32;9.80;99.90
19449;DHT22;9863;49.404;8.246;2023-05-17T06:13:00;9.90;99.90
19449;DHT22;9863;49.404;8.246;2023-05-17T06:15:31;9.90;99.90
19449;DHT22;9863;49.404;8.246;2023-05-17T06:17:58;9.90;99.90
19449;DHT22;9863;49.404;8.246;2023-05-17T06:20:27;10.00;99.90
19449;DHT22;9863;49.404;8.246;2023-05-17T06:22:59;10.10;99.90
19449;DHT22;9863;49.404;8.246;2023-05-17T06:25:27;10.30;99.90
19449;DHT22;9863;49.404;8.246;2023-05-17T06:27:54;10.30;99.90
19449;DHT22;9863;49.404;8.246;2023-05-17T06:30:21;10.40;99.90
19449;DHT22;9863;49.404;8.246;2023-05-17T06:32:49;10.60;99.90
19449;DHT22;9863;49.404;8.246;2023-05-17T06:35:16;10.60;99.90
19449;DHT22;9863;49.404;8.246;2023-05-17T06:37:43;10.70;99.90
19449;DHT22;9863;49.404;8.246;2023-05-17T06:40:11;10.70;99.90
19449;DHT22;9863;49.404;8.246;2023-05-17T06:42:42;10.90;99.90
19449;DHT22;9863;49.404;8.246;2023-05-17T06:45:10;10.90;99.90
19449;DHT22;9863;49.404;8.246;2023-05-17T06:47:37;13.30;99.90
19449;DHT22;9863;49.404;8.246;2023-05-17T06:50:05;10.90;99.90
19449;DHT22;9863;49.404;8.246;2023-05-17T06:52:34;10.90;99.90
19449;DHT22;9863;49.404;8.246;2023-05-17T06:55:02;11.00;99.90
19449;DHT22;9863;49.404;8.246;2023-05-17T06:57:29;11.00;99.90
19449;DHT22;9863;49.404;8.246;2023-05-17T06:59:56;11.10;99.90
19449;DHT22;9863;49.404;8.246;2023-05-17T07:02:23;11.20;99.90
19449;DHT22;9863;49.404;8.246;2023-05-17T07:07:18;11.50;99.90
19449;DHT22;9863;49.404;8.246;2023-05-17T07:09:46;11.70;99.90
19449;DHT22;9863;49.404;8.246;2023-05-17T07:12:13;11.80;99.90
19449;DHT22;9863;49.404;8.246;2023-05-17T07:14:40;11.60;99.90
19449;DHT22;9863;49.404;8.246;2023-05-17T07:19:36;11.70;99.90
19449;DHT22;9863;49.404;8.246;2023-05-17T07:22:03;11.70;99.90
19449;DHT22;9863;49.404;8.246;2023-05-17T07:24:31;11.70;99.90
19449;DHT22;9863;49.404;8.246;2023-05-17T07:27:00;12.00;99.90
19449;DHT22;9863;49.404;8.246;2023-05-17T07:29:28;12.00;99.90
19449;DHT22;9863;49.404;8.246;2023-05-17T07:31:55;11.80;99.90
19449;DHT22;9863;49.404;8.246;2023-05-17T07:34:22;11.80;99.90
19449;DHT22;9863;49.404;8.246;2023-05-17T07:36:49;11.60;99.90
19449;DHT22;9863;49.404;8.246;2023-05-17T07:41:44;11.60;99.90
19449;DHT22;9863;49.404;8.246;2023-05-17T07:44:11;11.60;99.90
19449;DHT22;9863;49.404;8.246;2023-05-17T07:46:38;11.70;99.90
19449;DHT22;9863;49.404;8.246;2023-05-17T07:49:05;11.70;99.90
19449;DHT22;9863;49.404;8.246;2023-05-17T07:51:33;11.60;99.90
19449;DHT22;9863;49.404;8.246;2023-05-17T07:54:01;11.80;99.90
19449;DHT22;9863;49.404;8.246;2023-05-17T07:56:28;11.80;99.90
19449;DHT22;9863;49.404;8.246;2023-05-17T07:58:59;12.10;99.90
19449;DHT22;9863;49.404;8.246;2023-05-17T08:01:26;11.90;99.90
19449;DHT22;9863;49.404;8.246;2023-05-17T08:03:53;12.60;99.90
19449;DHT22;9863;49.404;8.246;2023-05-17T08:06:20;12.60;99.90
19449;DHT22;9863;49.404;8.246;2023-05-17T08:08:48;12.90;99.90
19449;DHT22;9863;49.404;8.246;2023-05-17T08:11:15;12.90;99.90
19449;DHT22;9863;49.404;8.246;2023-05-17T08:13:43;12.40;99.90
19449;DHT22;9863;49.404;8.246;2023-05-17T08:16:11;12.40;99.90
19449;DHT22;9863;49.404;8.246;2023-05-17T08:18:43;13.00;99.90
19449;DHT22;9863;49.404;8.246;2023-05-17T08:21:11;12.60;99.90
19449;DHT22;9863;49.404;8.246;2023-05-17T08:23:39;9.90;99.90
19449;DHT22;9863;49.404;8.246;2023-05-17T08:26:07;13.10;99.90
19449;DHT22;9863;49.404;8.246;2023-05-17T08:28:34;13.20;99.90
19449;DHT22;9863;49.404;8.246;2023-05-17T08:31:02;13.00;99.90
19449;DHT22;9863;49.404;8.246;2023-05-17T08:33:30;13.20;99.90
19449;DHT22;9863;49.404;8.246;2023-05-17T08:35:59;13.30;99.90
19449;DHT22;9863;49.404;8.246;2023-05-17T08:38:28;13.70;99.90
19449;DHT22;9863;49.404;8.246;2023-05-17T08:43:25;14.00;99.90
19449;DHT22;9863;49.404;8.246;2023-05-17T08:48:25;13.10;99.90
19449;DHT22;9863;49.404;8.246;2023-05-17T08:50:55;13.40;99.90
19449;DHT22;9863;49.404;8.246;2023-05-17T08:53:24;13.70;99.90
19449;DHT22;9863;49.404;8.246;2023-05-17T08:55:56;13.90;99.90
19449;DHT22;9863;49.404;8.246;2023-05-17T08:58:32;14.40;99.90
19449;DHT22;9863;49.404;8.246;2023-05-17T09:01:20;14.40;99.90
19449;DHT22;9863;49.404;8.246;2023-05-17T09:06:20;14.20;99.90
19449;DHT22;9863;49.404;8.246;2023-05-17T09:08:52;14.00;99.90
19449;DHT22;9863;49.404;8.246;2023-05-17T09:11:31;13.40;99.90
19449;DHT22;9863;49.404;8.246;2023-05-17T09:14:00;13.40;99.90
19449;DHT22;9863;49.404;8.246;2023-05-17T09:16:29;13.30;99.90
19449;DHT22;9863;49.404;8.246;2023-05-17T09:18:58;13.30;99.90
19449;DHT22;9863;49.404;8.246;2023-05-17T09:21:26;13.40;99.90
19449;DHT22;9863;49.404;8.246;2023-05-17T09:23:57;13.70;99.90
19449;DHT22;9863;49.404;8.246;2023-05-17T09:26:41;13.70;99.90
19449;DHT22;9863;49.404;8.246;2023-05-17T09:29:12;13.80;99.90
19449;DHT22;9863;49.404;8.246;2023-05-17T09:31:41;13.80;99.90
19449;DHT22;9863;49.404;8.246;2023-05-17T09:34:09;14.10;99.90
19449;DHT22;9863;49.404;8.246;2023-05-17T09:36:40;13.90;99.90
19449;DHT22;9863;49.404;8.246;2023-05-17T09:39:09;14.00;99.90
19449;DHT22;9863;49.404;8.246;2023-05-17T09:41:41;13.90;99.90
19449;DHT22;9863;49.404;8.246;2023-05-17T09:44:15;14.00;99.90
19449;DHT22;9863;49.404;8.246;2023-05-17T09:46:47;13.70;99.90
19449;DHT22;9863;49.404;8.246;2023-05-17T09:49:15;13.70;99.90
19449;DHT22;9863;49.404;8.246;2023-05-17T09:51:45;13.30;99.90
19449;DHT22;9863;49.404;8.246;2023-05-17T09:54:14;13.30;99.90
19449;DHT22;9863;49.404;8.246;2023-05-17T09:56:41;13.50;99.90
19449;DHT22;9863;49.404;8.246;2023-05-17T09:59:15;13.40;99.90
19449;DHT22;9863;49.404;8.246;2023-05-17T10:01:44;13.60;99.90
19449;DHT22;9863;49.404;8.246;2023-05-17T10:04:12;13.60;99.90
19449;DHT22;9863;49.404;8.246;2023-05-17T10:06:41;14.60;99.90
19449;DHT22;9863;49.404;8.246;2023-05-17T10:09:20;14.00;99.90
19449;DHT22;9863;49.404;8.246;2023-05-17T10:11:51;14.00;99.90
19449;DHT22;9863;49.404;8.246;2023-05-17T10:14:30;14.00;99.90
19449;DHT22;9863;49.404;8.246;2023-05-17T10:16:59;14.10;99.90
19449;DHT22;9863;49.404;8.246;2023-05-17T10:19:29;14.00;99.90
19449;DHT22;9863;49.404;8.246;2023-05-17T10:21:57;14.20;99.90
19449;DHT22;9863;49.404;8.246;2023-05-17T10:24:44;14.30;99.90
19449;DHT22;9863;49.404;8.246;2023-05-17T10:27:14;14.30;99.90
19449;DHT22;9863;49.404;8.246;2023-05-17T10:29:43;14.70;99.90
19449;DHT22;9863;49.404;8.246;2023-05-17T10:34:43;15.10;99.90
19449;DHT22;9863;49.404;8.246;2023-05-17T10:37:16;15.10;99.90
19449;DHT22;9863;49.404;8.246;2023-05-17T10:39:45;15.50;99.90
19449;DHT22;9863;49.404;8.246;2023-05-17T10:42:15;15.70;99.90
19449;DHT22;9863;49.404;8.246;2023-05-17T10:44:44;15.30;99.90
19449;DHT22;9863;49.404;8.246;2023-05-17T10:47:13;15.30;99.90
19449;DHT22;9863;49.404;8.246;2023-05-17T10:49:43;15.10;99.90
19449;DHT22;9863;49.404;8.246;2023-05-17T10:52:19;15.10;99.90
19449;DHT22;9863;49.404;8.246;2023-05-17T10:54:49;15.10;99.90
19449;DHT22;9863;49.404;8.246;2023-05-17T10:57:34;15.10;99.90
19449;DHT22;9863;49.404;8.246;2023-05-17T11:00:06;15.30;99.90
19449;DHT22;9863;49.404;8.246;2023-05-17T11:02:39;15.20;99.90
19449;DHT22;9863;49.404;8.246;2023-05-17T11:05:25;15.80;99.90
19449;DHT22;9863;49.404;8.246;2023-05-17T11:08:12;15.80;99.90
19449;DHT22;9863;49.404;8.246;2023-05-17T11:11:15;15.20;99.90
19449;DHT22;9863;49.404;8.246;2023-05-17T11:13:45;15.20;99.90
19449;DHT22;9863;49.404;8.246;2023-05-17T11:16:21;15.10;99.90
19449;DHT22;9863;49.404;8.246;2023-05-17T11:18:54;15.80;99.90
19449;DHT22;9863;49.404;8.246;2023-05-17T11:21:27;16.40;99.90
19449;DHT22;9863;49.404;8.246;2023-05-17T11:24:00;16.60;99.90
19449;DHT22;9863;49.404;8.246;2023-05-17T11:29:08;16.90;99.90
19449;DHT22;9863;49.404;8.246;2023-05-17T11:31:43;17.60;99.90
19449;DHT22;9863;49.404;8.246;2023-05-17T11:34:11;17.60;99.90
19449;DHT22;9863;49.404;8.246;2023-05-17T11:36:52;17.20;99.90
19449;DHT22;9863;49.404;8.246;2023-05-17T11:39:23;16.80;99.90
19449;DHT22;9863;49.404;8.246;2023-05-17T11:41:55;17.00;99.90
19449;DHT22;9863;49.404;8.246;2023-05-17T11:44:32;17.70;99.90
19449;DHT22;9863;49.404;8.246;2023-05-17T11:47:04;17.10;99.90
19449;DHT22;9863;49.404;8.246;2023-05-17T11:49:38;17.10;99.90
19449;DHT22;9863;49.404;8.246;2023-05-17T11:52:07;17.20;99.90
19449;DHT22;9863;49.404;8.246;2023-05-17T11:54:38;17.00;99.90
19449;DHT22;9863;49.404;8.246;2023-05-17T11:57:07;17.00;99.90
19449;DHT22;9863;49.404;8.246;2023-05-17T11:59:38;17.10;99.90
19449;DHT22;9863;49.404;8.246;2023-05-17T12:02:06;17.10;99.90
19449;DHT22;9863;49.404;8.246;2023-05-17T12:04:37;16.90;99.90
19449;DHT22;9863;49.404;8.246;2023-05-17T12:07:08;16.80;99.90
19449;DHT22;9863;49.404;8.246;2023-05-17T12:09:37;16.50;99.90
19449;DHT22;9863;49.404;8.246;2023-05-17T12:12:06;16.80;99.90
19449;DHT22;9863;49.404;8.246;2023-05-17T12:14:34;17.20;99.90
19449;DHT22;9863;49.404;8.246;2023-05-17T12:17:04;17.90;99.90
19449;DHT22;9863;49.404;8.246;2023-05-17T12:19:33;17.90;99.90
19449;DHT22;9863;49.404;8.246;2023-05-17T12:22:08;18.40;99.90
19449;DHT22;9863;49.404;8.246;2023-05-17T12:24:42;17.80;99.90
19449;DHT22;9863;49.404;8.246;2023-05-17T12:27:09;17.50;99.90
19449;DHT22;9863;49.404;8.246;2023-05-17T12:29:38;17.80;99.90
19449;DHT22;9863;49.404;8.246;2023-05-17T12:32:07;17.80;99.90
19449;DHT22;9863;49.404;8.246;2023-05-17T12:37:05;17.70;99.90
19449;DHT22;9863;49.404;8.246;2023-05-17T12:39:36;17.80;99.90
19449;DHT22;9863;49.404;8.246;2023-05-17T12:42:04;20.70;99.90
19449;DHT22;9863;49.404;8.246;2023-05-17T12:44:32;17.50;99.90
19449;DHT22;9863;49.404;8.246;2023-05-17T12:47:01;17.20;99.90
19449;DHT22;9863;49.404;8.246;2023-05-17T12:52:02;17.90;99.90
19449;DHT22;9863;49.404;8.246;2023-05-17T12:54:32;17.90;99.90
19449;DHT22;9863;49.404;8.246;2023-05-17T12:57:09;18.20;99.90
19449;DHT22;9863;49.404;8.246;2023-05-17T12:59:50;18.10;99.90
19449;DHT22;9863;49.404;8.246;2023-05-17T13:02:18;18.30;99.90
19449;DHT22;9863;49.404;8.246;2023-05-17T13:07:22;18.20;99.90
19449;DHT22;9863;49.404;8.246;2023-05-17T13:12:22;18.90;99.90
19449;DHT22;9863;49.404;8.246;2023-05-17T13:14:51;18.70;99.90
19449;DHT22;9863;49.404;8.246;2023-05-17T13:17:34;18.70;99.90
19449;DHT22;9863;49.404;8.246;2023-05-17T13:20:03;18.30;99.90
19449;DHT22;9863;49.404;8.246;2023-05-17T13:25:04;18.30;99.90
19449;DHT22;9863;49.404;8.246;2023-05-17T13:27:32;18.40;99.90
19449;DHT22;9863;49.404;8.246;2023-05-17T13:34:56;19.10;99.90
19449;DHT22;9863;49.404;8.246;2023-05-17T13:37:23;19.20;99.90
19449;DHT22;9863;49.404;8.246;2023-05-17T13:39:50;19.20;99.90
19449;DHT22;9863;49.404;8.246;2023-05-17T13:42:20;18.20;97.70
19449;DHT22;9863;49.404;8.246;2023-05-17T13:49:43;19.00;99.90
19449;DHT22;9863;49.404;8.246;2023-05-17T13:52:10;19.00;96.40
19449;DHT22;9863;49.404;8.246;2023-05-17T13:57:06;19.60;96.80
19449;DHT22;9863;49.404;8.246;2023-05-17T13:59:33;19.50;97.30
19449;DHT22;9863;49.404;8.246;2023-05-17T14:04:29;19.00;97.10
19449;DHT22;9863;49.404;8.246;2023-05-17T14:06:57;19.00;98.80
19449;DHT22;9863;49.404;8.246;2023-05-17T14:09:24;19.30;97.00
19449;DHT22;9863;49.404;8.246;2023-05-17T14:11:51;19.10;95.10
19449;DHT22;9863;49.404;8.246;2023-05-17T14:14:18;20.10;99.00
19449;DHT22;9863;49.404;8.246;2023-05-17T14:16:45;20.10;98.40
19449;DHT22;9863;49.404;8.246;2023-05-17T14:19:12;20.80;97.90
19449;DHT22;9863;49.404;8.246;2023-05-17T14:21:40;21.20;99.40
19449;DHT22;9863;49.404;8.246;2023-05-17T14:24:07;20.50;95.10
19449;DHT22;9863;49.404;8.246;2023-05-17T14:26:34;20.20;96.10
19449;DHT22;9863;49.404;8.246;2023-05-17T14:29:02;20.90;98.00
19449;DHT22;9863;49.404;8.246;2023-05-17T14:33:59;21.00;98.00
19449;DHT22;9863;49.404;8.246;2023-05-17T14:36:28;20.30;98.10
19449;DHT22;9863;49.404;8.246;2023-05-17T14:38:56;20.50;97.20
19449;DHT22;9863;49.404;8.246;2023-05-17T14:41:23;20.50;95.00
19449;DHT22;9863;49.404;8.246;2023-05-17T14:43:50;20.50;95.80
19449;DHT22;9863;49.404;8.246;2023-05-17T14:46:17;20.90;93.10
19449;DHT22;9863;49.404;8.246;2023-05-17T14:48:45;20.80;93.50
19449;DHT22;9863;49.404;8.246;2023-05-17T14:51:12;21.00;96.50
19449;DHT22;9863;49.404;8.246;2023-05-17T14:53:39;21.00;94.20
19449;DHT22;9863;49.404;8.246;2023-05-17T14:56:06;21.00;97.00
19449;DHT22;9863;49.404;8.246;2023-05-17T14:58:33;21.30;95.80
19449;DHT22;9863;49.404;8.246;2023-05-17T15:01:01;19.90;94.80
19449;DHT22;9863;49.404;8.246;2023-05-17T15:03:33;20.20;94.50
19449;DHT22;9863;49.404;8.246;2023-05-17T15:06:00;20.40;95.40
19449;DHT22;9863;49.404;8.246;2023-05-17T15:08:33;19.40;93.10
19449;DHT22;9863;49.404;8.246;2023-05-17T15:11:00;20.90;95.90
19449;DHT22;9863;49.404;8.246;2023-05-17T15:13:27;21.30;93.80
19449;DHT22;9863;49.404;8.246;2023-05-17T15:15:55;21.30;94.40
19449;DHT22;9863;49.404;8.246;2023-05-17T15:18:22;21.80;95.90
19449;DHT22;9863;49.404;8.246;2023-05-17T15:20:49;21.40;93.00
19449;DHT22;9863;49.404;8.246;2023-05-17T15:23:16;21.20;94.30
19449;DHT22;9863;49.404;8.246;2023-05-17T15:25:43;21.10;94.50
19449;DHT22;9863;49.404;8.246;2023-05-17T15:28:11;21.50;93.20
19449;DHT22;9863;49.404;8.246;2023-05-17T15:30:38;21.10;95.40
19449;DHT22;9863;49.404;8.246;2023-05-17T15:33:07;20.70;93.10
19449;DHT22;9863;49.404;8.246;2023-05-17T15:35:35;21.20;94.10
19449;DHT22;9863;49.404;8.246;2023-05-17T15:38:06;21.10;95.40
19449;DHT22;9863;49.404;8.246;2023-05-17T15:40:34;21.50;94.70
19449;DHT22;9863;49.404;8.246;2023-05-17T15:45:28;21.40;92.70
19449;DHT22;9863;49.404;8.246;2023-05-17T15:47:56;21.30;94.10
19449;DHT22;9863;49.404;8.246;2023-05-17T15:50:23;21.50;94.00
19449;DHT22;9863;49.404;8.246;2023-05-17T15:52:51;21.60;92.40
19449;DHT22;9863;49.404;8.246;2023-05-17T15:55:18;21.60;93.00
19449;DHT22;9863;49.404;8.246;2023-05-17T15:57:45;21.70;93.10
19449;DHT22;9863;49.404;8.246;2023-05-17T16:00:13;21.30;93.10
19449;DHT22;9863;49.404;8.246;2023-05-17T16:02:40;21.10;93.30
19449;DHT22;9863;49.404;8.246;2023-05-17T16:05:08;21.70;94.10
19449;DHT22;9863;49.404;8.246;2023-05-17T16:07:35;21.50;94.20
19449;DHT22;9863;49.404;8.246;2023-05-17T16:10:02;21.30;92.00
19449;DHT22;9863;49.404;8.246;2023-05-17T16:14:57;21.00;91.50
19449;DHT22;9863;49.404;8.246;2023-05-17T16:17:24;21.00;91.20
19449;DHT22;9863;49.404;8.246;2023-05-17T16:19:52;21.00;91.70
19449;DHT22;9863;49.404;8.246;2023-05-17T16:24:51;21.00;93.10
19449;DHT22;9863;49.404;8.246;2023-05-17T16:27:20;21.40;93.10
19449;DHT22;9863;49.404;8.246;2023-05-17T16:29:47;19.90;91.60
19449;DHT22;9863;49.404;8.246;2023-05-17T16:32:14;21.20;92.90
19449;DHT22;9863;49.404;8.246;2023-05-17T16:34:42;20.30;94.30
19449;DHT22;9863;49.404;8.246;2023-05-17T16:37:09;20.30;93.00
19449;DHT22;9863;49.404;8.246;2023-05-17T16:39:36;20.00;96.20
19449;DHT22;9863;49.404;8.246;2023-05-17T16:44:31;20.00;94.70
19449;DHT22;9863;49.404;8.246;2023-05-17T16:46:59;20.20;97.20
19449;DHT22;9863;49.404;8.246;2023-05-17T16:49:26;20.20;92.90
19449;DHT22;9863;49.404;8.246;2023-05-17T16:51:55;20.10;93.50
19449;DHT22;9863;49.404;8.246;2023-05-17T16:54:23;20.40;94.40
19449;DHT22;9863;49.404;8.246;2023-05-17T16:59:20;20.20;94.60
19449;DHT22;9863;49.404;8.246;2023-05-17T17:09:10;19.70;94.50
19449;DHT22;9863;49.404;8.246;2023-05-17T17:11:38;19.20;94.90
19449;DHT22;9863;49.404;8.246;2023-05-17T17:24:03;20.10;94.30
19449;DHT22;9863;49.404;8.246;2023-05-17T17:26:34;19.60;92.70
19449;DHT22;9863;49.404;8.246;2023-05-17T17:31:33;18.80;95.10
19449;DHT22;9863;49.404;8.246;2023-05-17T17:36:28;18.70;94.60
19449;DHT22;9863;49.404;8.246;2023-05-17T17:43:51;18.70;94.90
19449;DHT22;9863;49.404;8.246;2023-05-17T17:46:19;18.10;96.50
19449;DHT22;9863;49.404;8.246;2023-05-17T17:48:46;18.10;95.00
19449;DHT22;9863;49.404;8.246;2023-05-17T17:51:13;18.00;96.80
19449;DHT22;9863;49.404;8.246;2023-05-17T17:53:40;17.90;95.40
19449;DHT22;9863;49.404;8.246;2023-05-17T17:56:07;17.90;96.40
19449;DHT22;9863;49.404;8.246;2023-05-17T17:58:34;17.90;96.80
19449;DHT22;9863;49.404;8.246;2023-05-17T18:01:02;17.70;96.60
19449;DHT22;9863;49.404;8.246;2023-05-17T18:03:29;17.70;95.90
19449;DHT22;9863;49.404;8.246;2023-05-17T18:05:58;17.40;95.20
19449;DHT22;9863;49.404;8.246;2023-05-17T18:08:25;17.50;96.70
19449;DHT22;9863;49.404;8.246;2023-05-17T18:10:53;17.30;96.70
19449;DHT22;9863;49.404;8.246;2023-05-17T18:15:47;16.80;95.20
19449;DHT22;9863;49.404;8.246;2023-05-17T18:18:15;16.70;95.30
19449;DHT22;9863;49.404;8.246;2023-05-17T18:20:42;16.70;96.20
19449;DHT22;9863;49.404;8.246;2023-05-17T18:23:09;16.50;96.60
19449;DHT22;9863;49.404;8.246;2023-05-17T18:25:36;16.80;98.00
19449;DHT22;9863;49.404;8.246;2023-05-17T18:28:04;16.70;97.00
19449;DHT22;9863;49.404;8.246;2023-05-17T18:30:34;16.40;96.20
19449;DHT22;9863;49.404;8.246;2023-05-17T18:35:29;16.40;96.50
19449;DHT22;9863;49.404;8.246;2023-05-17T18:37:57;16.30;97.50
19449;DHT22;9863;49.404;8.246;2023-05-17T18:40:26;16.10;97.30
19449;DHT22;9863;49.404;8.246;2023-05-17T18:42:53;16.20;98.20
19449;DHT22;9863;49.404;8.246;2023-05-17T18:45:20;16.00;96.20
19449;DHT22;9863;49.404;8.246;2023-05-17T18:52:44;15.70;99.20
19449;DHT22;9863;49.404;8.246;2023-05-17T18:55:13;15.70;99.00
19449;DHT22;9863;49.404;8.246;2023-05-17T19:00:11;15.20;97.40
19449;DHT22;9863;49.404;8.246;2023-05-17T19:22:26;15.10;99.90
19449;DHT22;9863;49.404;8.246;2023-05-17T19:24:53;14.90;99.90
19449;DHT22;9863;49.404;8.246;2023-05-17T19:27:20;14.60;99.90
19449;DHT22;9863;49.404;8.246;2023-05-17T19:37:11;14.10;99.90
19449;DHT22;9863;49.404;8.246;2023-05-17T19:39:38;14.30;99.90